sensor_id;sensor_type;location;lat;lon;timestamp;pressure;altitude;pressure_sealevel;temperature;humidity
6506;BME280;3286;49.858;8.768;2023-06-10T00:01:23;98919.13;;;19.18;49.39
6506;BME280;3286;49.858;8.768;2023-06-10T00:03:50;98925.16;;;19.06;49.32
6506;BME280;3286;49.858;8.768;2023-06-10T00:06:18;98921.78;;;19.57;48.24
6506;BME280;3286;49.858;8.768;2023-06-10T00:08:46;98924.59;;;18.84;49.34
6506;BME280;3286;49.858;8.768;2023-06-10T00:11:13;98925.09;;;19.13;49.08
6506;BME280;3286;49.858;8.768;2023-06-10T00:13:40;98930.28;;;19.08;49.03
6506;BME280;3286;49.858;8.768;2023-06-10T00:16:06;98921.50;;;18.74;50.04
6506;BME280;3286;49.858;8.768;2023-06-10T00:18:33;98929.19;;;18.43;50.53
6506;BME280;3286;49.858;8.768;2023-06-10T00:21:04;98922.13;;;18.76;50.03
6506;BME280;3286;49.858;8.768;2023-06-10T00:23:32;98929.59;;;18.60;50.45
6506;BME280;3286;49.858;8.768;2023-06-10T00:26:03;98925.25;;;18.66;50.31
6506;BME280;3286;49.858;8.768;2023-06-10T00:28:29;98927.47;;;18.76;49.31
6506;BME280;3286;49.858;8.768;2023-06-10T00:30:56;98922.88;;;18.96;49.37
6506;BME280;3286;49.858;8.768;2023-06-10T00:33:23;98924.00;;;18.75;49.72
6506;BME280;3286;49.858;8.768;2023-06-10T00:35:49;98915.53;;;18.85;49.64
6506;BME280;3286;49.858;8.768;2023-06-10T00:38:16;98932.25;;;18.53;50.44
6506;BME280;3286;49.858;8.768;2023-06-10T00:40:44;98920.03;;;18.85;49.61
6506;BME280;3286;49.858;8.768;2023-06-10T00:43:11;98934.97;;;18.47;50.29
6506;BME280;3286;49.858;8.768;2023-06-10T00:45:37;98927.97;;;18.32;51.15
6506;BME280;3286;49.858;8.768;2023-06-10T00:48:04;98923.84;;;18.43;50.67
6506;BME280;3286;49.858;8.768;2023-06-10T00:50:31;98923.47;;;17.99;51.54
6506;BME280;3286;49.858;8.768;2023-06-10T00:52:59;98932.50;;;18.52;50.38
6506;BME280;3286;49.858;8.768;2023-06-10T00:55:27;98932.94;;;18.02;51.43
6506;BME280;3286;49.858;8.768;2023-06-10T00:57:55;98929.25;;;18.16;50.60
6506;BME280;3286;49.858;8.768;2023-06-10T01:00:21;98930.47;;;18.34;50.43
6506;BME280;3286;49.858;8.768;2023-06-10T01:02:48;98936.84;;;18.33;50.20
6506;BME280;3286;49.858;8.768;2023-06-10T01:05:18;98932.94;;;18.22;50.55
6506;BME280;3286;49.858;8.768;2023-06-10T01:07:50;98935.81;;;18.41;50.31
6506;BME280;3286;49.858;8.768;2023-06-10T01:10:23;98932.75;;;18.03;51.06
6506;BME280;3286;49.858;8.768;2023-06-10T01:12:58;98932.69;;;17.90;51.80
6506;BME280;3286;49.858;8.768;2023-06-10T01:15:28;98931.69;;;17.98;51.25
6506;BME280;3286;49.858;8.768;2023-06-10T01:17:56;98936.03;;;18.19;50.64
6506;BME280;3286;49.858;8.768;2023-06-10T01:20:25;98929.41;;;17.94;51.14
6506;BME280;3286;49.858;8.768;2023-06-10T01:22:53;98932.09;;;17.81;51.28
6506;BME280;3286;49.858;8.768;2023-06-10T01:25:21;98927.97;;;18.32;50.03
6506;BME280;3286;49.858;8.768;2023-06-10T01:27:55;98922.44;;;17.80;51.29
6506;BME280;3286;49.858;8.768;2023-06-10T01:30:28;98932.75;;;18.03;50.81
6506;BME280;3286;49.858;8.768;2023-06-10T01:32:59;98935.59;;;18.15;50.43
6506;BME280;3286;49.858;8.768;2023-06-10T01:35:29;98934.97;;;17.86;51.21
6506;BME280;3286;49.858;8.768;2023-06-10T01:37:58;98933.69;;;17.69;51.96
6506;BME280;3286;49.858;8.768;2023-06-10T01:40:28;98936.03;;;18.05;51.00
6506;BME280;3286;49.858;8.768;2023-06-10T01:42:55;98943.81;;;17.93;51.17
6506;BME280;3286;49.858;8.768;2023-06-10T01:45:22;98940.72;;;17.90;51.36
6506;BME280;3286;49.858;8.768;2023-06-10T01:47:49;98935.78;;;17.73;51.45
6506;BME280;3286;49.858;8.768;2023-06-10T01:50:15;98944.81;;;17.59;51.62
6506;BME280;3286;49.858;8.768;2023-06-10T01:52:42;98937.19;;;17.56;51.85
6506;BME280;3286;49.858;8.768;2023-06-10T01:55:10;98933.53;;;17.77;51.45
6506;BME280;3286;49.858;8.768;2023-06-10T01:57:37;98940.69;;;17.56;51.92
6506;BME280;3286;49.858;8.768;2023-06-10T02:00:04;98939.25;;;17.74;51.25
6506;BME280;3286;49.858;8.768;2023-06-10T02:02:32;98944.97;;;17.50;52.05
6506;BME280;3286;49.858;8.768;2023-06-10T02:04:59;98942.53;;;17.56;51.63
6506;BME280;3286;49.858;8.768;2023-06-10T02:07:25;98946.66;;;17.65;51.00
6506;BME280;3286;49.858;8.768;2023-06-10T02:09:52;98941.53;;;17.77;50.71
6506;BME280;3286;49.858;8.768;2023-06-10T02:12:20;98935.34;;;17.70;50.80
6506;BME280;3286;49.858;8.768;2023-06-10T02:14:46;98941.34;;;17.85;50.42
6506;BME280;3286;49.858;8.768;2023-06-10T02:17:13;98945.22;;;17.56;51.08
6506;BME280;3286;49.858;8.768;2023-06-10T02:19:40;98949.91;;;17.53;51.14
6506;BME280;3286;49.858;8.768;2023-06-10T02:22:08;98952.41;;;17.62;50.96
6506;BME280;3286;49.858;8.768;2023-06-10T02:24:35;98944.06;;;18.05;49.82
6506;BME280;3286;49.858;8.768;2023-06-10T02:27:03;98941.13;;;17.87;50.24
6506;BME280;3286;49.858;8.768;2023-06-10T02:29:33;98941.06;;;17.40;51.09
6506;BME280;3286;49.858;8.768;2023-06-10T02:32:01;98936.84;;;17.10;51.91
6506;BME280;3286;49.858;8.768;2023-06-10T02:34:28;98942.28;;;17.50;51.10
6506;BME280;3286;49.858;8.768;2023-06-10T02:36:55;98946.63;;;17.45;50.97
6506;BME280;3286;49.858;8.768;2023-06-10T02:39:22;98944.31;;;17.35;51.12
6506;BME280;3286;49.858;8.768;2023-06-10T02:41:48;98941.00;;;17.26;51.35
6506;BME280;3286;49.858;8.768;2023-06-10T02:44:15;98942.69;;;16.92;52.31
6506;BME280;3286;49.858;8.768;2023-06-10T02:46:43;98944.31;;;17.35;50.95
6506;BME280;3286;49.858;8.768;2023-06-10T02:49:10;98943.97;;;17.72;49.78
6506;BME280;3286;49.858;8.768;2023-06-10T02:51:37;98950.38;;;17.77;49.71
6506;BME280;3286;49.858;8.768;2023-06-10T02:54:04;98943.56;;;17.55;50.18
6506;BME280;3286;49.858;8.768;2023-06-10T02:56:31;98946.84;;;17.57;50.34
6506;BME280;3286;49.858;8.768;2023-06-10T02:58:58;98947.78;;;17.29;50.87
6506;BME280;3286;49.858;8.768;2023-06-10T03:01:25;98943.06;;;17.31;50.99
6506;BME280;3286;49.858;8.768;2023-06-10T03:03:53;98944.72;;;17.32;51.00
6506;BME280;3286;49.858;8.768;2023-06-10T03:06:21;98953.81;;;17.51;50.39
6506;BME280;3286;49.858;8.768;2023-06-10T03:08:50;98955.06;;;17.55;50.04
6506;BME280;3286;49.858;8.768;2023-06-10T03:11:16;98957.69;;;17.42;50.70
6506;BME280;3286;49.858;8.768;2023-06-10T03:13:44;98952.44;;;17.95;49.39
6506;BME280;3286;49.858;8.768;2023-06-10T03:16:11;98947.41;;;17.32;50.62
6506;BME280;3286;49.858;8.768;2023-06-10T03:18:38;98947.63;;;17.44;50.44
6506;BME280;3286;49.858;8.768;2023-06-10T03:21:06;98953.84;;;17.58;50.26
6506;BME280;3286;49.858;8.768;2023-06-10T03:23:34;98955.25;;;17.47;50.71
6506;BME280;3286;49.858;8.768;2023-06-10T03:26:00;98955.38;;;17.25;51.31
6506;BME280;3286;49.858;8.768;2023-06-10T03:28:27;98956.97;;;17.75;49.77
6506;BME280;3286;49.858;8.768;2023-06-10T03:30:54;98956.78;;;17.21;51.07
6506;BME280;3286;49.858;8.768;2023-06-10T03:33:20;98962.34;;;17.19;51.10
6506;BME280;3286;49.858;8.768;2023-06-10T03:35:47;98964.63;;;17.29;50.92
6506;BME280;3286;49.858;8.768;2023-06-10T03:38:15;98962.34;;;17.19;51.17
6506;BME280;3286;49.858;8.768;2023-06-10T03:40:42;98972.28;;;17.46;50.47
6506;BME280;3286;49.858;8.768;2023-06-10T03:43:08;98965.25;;;17.31;50.67
6506;BME280;3286;49.858;8.768;2023-06-10T03:45:35;98974.63;;;17.14;51.25
6506;BME280;3286;49.858;8.768;2023-06-10T03:48:02;98972.88;;;17.34;51.04
6506;BME280;3286;49.858;8.768;2023-06-10T03:50:29;98969.53;;;17.19;51.66
6506;BME280;3286;49.858;8.768;2023-06-10T03:52:57;98967.31;;;17.36;51.08
6506;BME280;3286;49.858;8.768;2023-06-10T03:55:25;98973.13;;;17.53;50.95
6506;BME280;3286;49.858;8.768;2023-06-10T03:57:52;98973.72;;;17.42;51.01
6506;BME280;3286;49.858;8.768;2023-06-10T04:00:19;98975.81;;;17.60;50.54
6506;BME280;3286;49.858;8.768;2023-06-10T04:02:47;98982.19;;;17.65;50.06
6506;BME280;3286;49.858;8.768;2023-06-10T04:05:18;98991.84;;;17.04;51.73
6506;BME280;3286;49.858;8.768;2023-06-10T04:07:45;98996.69;;;17.36;51.22
6506;BME280;3286;49.858;8.768;2023-06-10T04:10:14;98998.78;;;16.99;52.67
6506;BME280;3286;49.858;8.768;2023-06-10T04:12:42;98991.38;;;17.43;51.83
6506;BME280;3286;49.858;8.768;2023-06-10T04:15:09;98990.97;;;17.46;51.90
6506;BME280;3286;49.858;8.768;2023-06-10T04:17:36;98999.53;;;17.28;53.24
6506;BME280;3286;49.858;8.768;2023-06-10T04:20:03;99000.41;;;17.42;52.30
6506;BME280;3286;49.858;8.768;2023-06-10T04:22:32;98997.44;;;17.78;51.80
6506;BME280;3286;49.858;8.768;2023-06-10T04:24:58;98991.91;;;17.80;51.77
6506;BME280;3286;49.858;8.768;2023-06-10T04:27:25;98988.41;;;18.00;51.51
6506;BME280;3286;49.858;8.768;2023-06-10T04:29:53;98991.97;;;18.20;51.16
6506;BME280;3286;49.858;8.768;2023-06-10T04:32:20;98990.94;;;18.21;51.21
6506;BME280;3286;49.858;8.768;2023-06-10T04:34:47;98995.25;;;18.29;51.11
6506;BME280;3286;49.858;8.768;2023-06-10T04:37:13;98991.16;;;18.27;51.22
6506;BME280;3286;49.858;8.768;2023-06-10T04:39:40;99003.06;;;18.58;50.79
6506;BME280;3286;49.858;8.768;2023-06-10T04:42:07;98996.06;;;18.57;50.82
6506;BME280;3286;49.858;8.768;2023-06-10T04:44:33;98995.84;;;18.65;50.88
6506;BME280;3286;49.858;8.768;2023-06-10T04:47:02;98995.44;;;18.61;50.82
6506;BME280;3286;49.858;8.768;2023-06-10T04:49:28;98994.34;;;18.82;50.93
6506;BME280;3286;49.858;8.768;2023-06-10T04:51:55;98992.47;;;18.96;50.32
6506;BME280;3286;49.858;8.768;2023-06-10T04:54:21;98989.63;;;18.91;50.48
6506;BME280;3286;49.858;8.768;2023-06-10T04:56:48;98986.97;;;18.98;50.34
6506;BME280;3286;49.858;8.768;2023-06-10T04:59:15;98986.50;;;19.08;50.45
6506;BME280;3286;49.858;8.768;2023-06-10T05:01:41;98994.75;;;19.06;50.23
6506;BME280;3286;49.858;8.768;2023-06-10T05:04:09;98988.50;;;19.26;49.93
6506;BME280;3286;49.858;8.768;2023-06-10T05:06:36;98999.25;;;19.13;50.04
6506;BME280;3286;49.858;8.768;2023-06-10T05:09:03;98993.66;;;19.21;49.67
6506;BME280;3286;49.858;8.768;2023-06-10T05:11:29;98994.53;;;19.53;49.27
6506;BME280;3286;49.858;8.768;2023-06-10T05:13:56;98997.97;;;19.29;49.26
6506;BME280;3286;49.858;8.768;2023-06-10T05:16:24;99000.16;;;19.45;49.23
6506;BME280;3286;49.858;8.768;2023-06-10T05:18:51;98995.81;;;19.51;49.24
6506;BME280;3286;49.858;8.768;2023-06-10T05:21:19;99000.44;;;19.69;48.98
6506;BME280;3286;49.858;8.768;2023-06-10T05:23:45;99002.28;;;19.68;48.66
6506;BME280;3286;49.858;8.768;2023-06-10T05:26:12;99002.97;;;19.57;48.96
6506;BME280;3286;49.858;8.768;2023-06-10T05:28:39;98994.41;;;19.80;48.44
6506;BME280;3286;49.858;8.768;2023-06-10T05:31:05;99003.16;;;20.01;48.00
6506;BME280;3286;49.858;8.768;2023-06-10T05:33:32;99001.69;;;20.05;48.35
6506;BME280;3286;49.858;8.768;2023-06-10T05:35:59;98999.66;;;20.26;48.23
6506;BME280;3286;49.858;8.768;2023-06-10T05:38:27;99011.47;;;20.18;48.66
6506;BME280;3286;49.858;8.768;2023-06-10T05:40:54;99011.28;;;20.45;48.38
6506;BME280;3286;49.858;8.768;2023-06-10T05:43:22;99006.91;;;20.51;48.50
6506;BME280;3286;49.858;8.768;2023-06-10T05:45:48;99003.94;;;20.59;48.21
6506;BME280;3286;49.858;8.768;2023-06-10T05:48:15;99003.53;;;20.55;47.91
6506;BME280;3286;49.858;8.768;2023-06-10T05:50:42;99006.75;;;20.64;47.79
6506;BME280;3286;49.858;8.768;2023-06-10T05:53:13;99008.50;;;20.77;47.40
6506;BME280;3286;49.858;8.768;2023-06-10T05:55:42;99008.38;;;20.91;46.93
6506;BME280;3286;49.858;8.768;2023-06-10T05:58:08;99010.56;;;20.82;47.10
6506;BME280;3286;49.858;8.768;2023-06-10T06:00:35;99009.44;;;21.08;46.22
6506;BME280;3286;49.858;8.768;2023-06-10T06:03:02;99013.91;;;20.96;46.15
6506;BME280;3286;49.858;8.768;2023-06-10T06:05:28;99012.13;;;21.27;46.23
6506;BME280;3286;49.858;8.768;2023-06-10T06:08:00;99012.41;;;21.19;46.27
6506;BME280;3286;49.858;8.768;2023-06-10T06:10:26;99002.75;;;21.48;46.10
6506;BME280;3286;49.858;8.768;2023-06-10T06:12:55;99003.41;;;21.62;45.41
6506;BME280;3286;49.858;8.768;2023-06-10T06:15:21;99007.09;;;21.80;44.95
6506;BME280;3286;49.858;8.768;2023-06-10T06:17:48;99004.97;;;22.00;44.63
6506;BME280;3286;49.858;8.768;2023-06-10T06:20:15;99002.47;;;21.99;44.58
6506;BME280;3286;49.858;8.768;2023-06-10T06:22:42;99002.06;;;22.14;44.43
6506;BME280;3286;49.858;8.768;2023-06-10T06:25:08;99007.22;;;22.16;44.29
6506;BME280;3286;49.858;8.768;2023-06-10T06:27:35;98999.16;;;22.27;43.58
6506;BME280;3286;49.858;8.768;2023-06-10T06:30:04;99003.16;;;21.82;45.11
6506;BME280;3286;49.858;8.768;2023-06-10T06:32:31;98997.63;;;22.43;43.65
6506;BME280;3286;49.858;8.768;2023-06-10T06:34:57;99002.31;;;22.24;44.42
6506;BME280;3286;49.858;8.768;2023-06-10T06:37:25;98994.84;;;22.50;43.25
6506;BME280;3286;49.858;8.768;2023-06-10T06:39:52;98995.69;;;22.51;43.26
6506;BME280;3286;49.858;8.768;2023-06-10T06:42:19;98997.13;;;23.18;42.16
6506;BME280;3286;49.858;8.768;2023-06-10T06:44:47;99006.97;;;23.24;42.55
6506;BME280;3286;49.858;8.768;2023-06-10T06:47:15;99000.63;;;23.19;42.13
6506;BME280;3286;49.858;8.768;2023-06-10T06:49:43;99001.88;;;23.52;41.60
6506;BME280;3286;49.858;8.768;2023-06-10T06:52:09;99000.50;;;23.66;41.57
6506;BME280;3286;49.858;8.768;2023-06-10T06:54:36;99003.44;;;23.36;41.87
6506;BME280;3286;49.858;8.768;2023-06-10T06:57:03;99005.75;;;23.73;41.18
6506;BME280;3286;49.858;8.768;2023-06-10T06:59:31;99004.53;;;23.81;41.26
6506;BME280;3286;49.858;8.768;2023-06-10T07:01:57;99003.09;;;23.90;40.73
6506;BME280;3286;49.858;8.768;2023-06-10T07:04:25;99002.16;;;24.13;39.42
6506;BME280;3286;49.858;8.768;2023-06-10T07:06:52;98996.91;;;23.78;40.03
6506;BME280;3286;49.858;8.768;2023-06-10T07:09:19;99006.06;;;24.57;38.33
6506;BME280;3286;49.858;8.768;2023-06-10T07:11:46;99007.94;;;24.39;38.52
6506;BME280;3286;49.858;8.768;2023-06-10T07:14:12;99010.22;;;24.65;38.28
6506;BME280;3286;49.858;8.768;2023-06-10T07:16:39;99008.41;;;25.10;37.72
6506;BME280;3286;49.858;8.768;2023-06-10T07:19:06;99012.38;;;25.02;37.76
6506;BME280;3286;49.858;8.768;2023-06-10T07:21:34;99013.16;;;25.20;37.11
6506;BME280;3286;49.858;8.768;2023-06-10T07:24:01;99008.03;;;25.01;37.89
6506;BME280;3286;49.858;8.768;2023-06-10T07:26:28;99010.38;;;25.37;37.09
6506;BME280;3286;49.858;8.768;2023-06-10T07:28:54;99016.41;;;24.99;37.43
6506;BME280;3286;49.858;8.768;2023-06-10T07:31:21;99011.22;;;24.76;37.47
6506;BME280;3286;49.858;8.768;2023-06-10T07:33:48;99011.19;;;24.58;37.76
6506;BME280;3286;49.858;8.768;2023-06-10T07:36:14;99012.00;;;25.15;36.49
6506;BME280;3286;49.858;8.768;2023-06-10T07:38:42;99010.00;;;25.06;37.24
6506;BME280;3286;49.858;8.768;2023-06-10T07:41:09;99011.44;;;25.36;36.62
6506;BME280;3286;49.858;8.768;2023-06-10T07:43:36;99008.47;;;25.59;35.87
6506;BME280;3286;49.858;8.768;2023-06-10T07:46:03;99004.28;;;26.01;34.69
6506;BME280;3286;49.858;8.768;2023-06-10T07:48:30;99006.66;;;25.98;34.55
6506;BME280;3286;49.858;8.768;2023-06-10T07:50:57;99013.31;;;26.45;34.22
6506;BME280;3286;49.858;8.768;2023-06-10T07:53:24;99007.75;;;26.29;34.83
6506;BME280;3286;49.858;8.768;2023-06-10T07:55:52;99008.63;;;26.73;34.26
6506;BME280;3286;49.858;8.768;2023-06-10T07:58:20;99004.34;;;26.44;34.82
6506;BME280;3286;49.858;8.768;2023-06-10T08:00:47;99002.31;;;26.24;34.55
6506;BME280;3286;49.858;8.768;2023-06-10T08:03:14;99004.50;;;26.27;35.00
6506;BME280;3286;49.858;8.768;2023-06-10T08:05:41;99008.50;;;26.57;34.43
6506;BME280;3286;49.858;8.768;2023-06-10T08:08:07;99005.47;;;26.86;34.36
6506;BME280;3286;49.858;8.768;2023-06-10T08:10:34;99018.09;;;26.75;33.96
6506;BME280;3286;49.858;8.768;2023-06-10T08:13:02;99016.50;;;26.37;34.36
6506;BME280;3286;49.858;8.768;2023-06-10T08:15:28;99017.84;;;26.07;34.92
6506;BME280;3286;49.858;8.768;2023-06-10T08:17:55;99020.88;;;25.83;35.67
6506;BME280;3286;49.858;8.768;2023-06-10T08:20:22;99014.53;;;26.27;34.83
6506;BME280;3286;49.858;8.768;2023-06-10T08:22:49;99018.13;;;26.81;33.97
6506;BME280;3286;49.858;8.768;2023-06-10T08:25:16;99015.00;;;26.94;34.34
6506;BME280;3286;49.858;8.768;2023-06-10T08:27:42;99019.66;;;27.09;33.22
6506;BME280;3286;49.858;8.768;2023-06-10T08:30:11;99017.94;;;26.87;33.72
6506;BME280;3286;49.858;8.768;2023-06-10T08:32:38;99015.13;;;27.30;33.43
6506;BME280;3286;49.858;8.768;2023-06-10T08:35:05;99011.91;;;27.33;33.65
6506;BME280;3286;49.858;8.768;2023-06-10T08:37:32;99007.13;;;27.72;32.34
6506;BME280;3286;49.858;8.768;2023-06-10T08:39:58;99004.94;;;27.69;33.63
6506;BME280;3286;49.858;8.768;2023-06-10T08:42:28;99015.09;;;26.72;34.17
6506;BME280;3286;49.858;8.768;2023-06-10T08:45:01;99015.16;;;27.36;33.99
6506;BME280;3286;49.858;8.768;2023-06-10T08:47:30;99012.09;;;28.32;32.49
6506;BME280;3286;49.858;8.768;2023-06-10T08:50:02;99009.34;;;27.90;33.21
6506;BME280;3286;49.858;8.768;2023-06-10T08:52:35;99003.38;;;28.35;32.38
6506;BME280;3286;49.858;8.768;2023-06-10T08:55:04;99002.84;;;28.33;32.42
6506;BME280;3286;49.858;8.768;2023-06-10T08:57:31;98997.66;;;28.78;31.87
6506;BME280;3286;49.858;8.768;2023-06-10T08:59:58;99000.06;;;28.69;31.23
6506;BME280;3286;49.858;8.768;2023-06-10T09:02:24;98994.94;;;28.52;31.76
6506;BME280;3286;49.858;8.768;2023-06-10T09:04:53;98986.81;;;28.31;31.32
6506;BME280;3286;49.858;8.768;2023-06-10T09:07:22;98986.84;;;28.37;31.35
6506;BME280;3286;49.858;8.768;2023-06-10T09:09:49;98989.84;;;28.19;32.04
6506;BME280;3286;49.858;8.768;2023-06-10T09:12:19;98979.25;;;29.20;31.14
6506;BME280;3286;49.858;8.768;2023-06-10T09:14:45;98982.78;;;29.71;30.19
6506;BME280;3286;49.858;8.768;2023-06-10T09:17:12;98977.78;;;29.43;30.92
6506;BME280;3286;49.858;8.768;2023-06-10T09:19:40;98965.84;;;29.34;30.45
6506;BME280;3286;49.858;8.768;2023-06-10T09:22:08;98970.66;;;29.53;31.64
6506;BME280;3286;49.858;8.768;2023-06-10T09:24:35;98976.09;;;29.02;30.28
6506;BME280;3286;49.858;8.768;2023-06-10T09:27:03;98975.94;;;29.28;31.05
6506;BME280;3286;49.858;8.768;2023-06-10T09:29:30;98979.97;;;29.41;29.77
6506;BME280;3286;49.858;8.768;2023-06-10T09:31:57;98980.47;;;28.88;30.84
6506;BME280;3286;49.858;8.768;2023-06-10T09:34:25;98977.19;;;29.52;30.65
6506;BME280;3286;49.858;8.768;2023-06-10T09:36:53;98969.88;;;29.87;29.85
6506;BME280;3286;49.858;8.768;2023-06-10T09:39:22;98973.78;;;29.75;28.91
6506;BME280;3286;49.858;8.768;2023-06-10T09:41:49;98966.59;;;29.90;30.02
6506;BME280;3286;49.858;8.768;2023-06-10T09:44:17;98969.56;;;30.82;29.30
6506;BME280;3286;49.858;8.768;2023-06-10T09:46:45;98967.94;;;30.52;28.92
6506;BME280;3286;49.858;8.768;2023-06-10T09:49:12;98964.97;;;29.49;29.90
6506;BME280;3286;49.858;8.768;2023-06-10T09:51:49;98961.28;;;29.74;29.54
6506;BME280;3286;49.858;8.768;2023-06-10T09:54:16;98959.28;;;30.20;28.28
6506;BME280;3286;49.858;8.768;2023-06-10T09:56:47;98947.88;;;29.83;29.21
6506;BME280;3286;49.858;8.768;2023-06-10T09:59:13;98945.56;;;30.30;28.65
6506;BME280;3286;49.858;8.768;2023-06-10T10:01:41;98947.56;;;30.49;28.25
6506;BME280;3286;49.858;8.768;2023-06-10T10:04:08;98943.22;;;29.84;29.28
6506;BME280;3286;49.858;8.768;2023-06-10T10:06:35;98944.44;;;29.67;28.63
6506;BME280;3286;49.858;8.768;2023-06-10T10:09:02;98939.75;;;29.73;28.45
6506;BME280;3286;49.858;8.768;2023-06-10T10:11:31;98938.50;;;30.54;27.70
6506;BME280;3286;49.858;8.768;2023-06-10T10:14:04;98935.03;;;30.48;27.23
6506;BME280;3286;49.858;8.768;2023-06-10T10:16:35;98939.72;;;30.42;28.27
6506;BME280;3286;49.858;8.768;2023-06-10T10:19:07;98933.44;;;30.71;27.04
6506;BME280;3286;49.858;8.768;2023-06-10T10:21:38;98939.28;;;31.27;27.53
6506;BME280;3286;49.858;8.768;2023-06-10T10:24:12;98919.06;;;32.00;26.58
6506;BME280;3286;49.858;8.768;2023-06-10T10:26:39;98935.16;;;31.30;27.25
6506;BME280;3286;49.858;8.768;2023-06-10T10:29:10;98930.31;;;30.29;25.91
6506;BME280;3286;49.858;8.768;2023-06-10T10:31:41;98931.75;;;31.38;24.98
6506;BME280;3286;49.858;8.768;2023-06-10T10:34:13;98928.00;;;30.42;26.42
6506;BME280;3286;49.858;8.768;2023-06-10T10:36:41;98921.22;;;30.39;25.74
6506;BME280;3286;49.858;8.768;2023-06-10T10:39:08;98936.53;;;30.59;26.13
6506;BME280;3286;49.858;8.768;2023-06-10T10:41:36;98919.00;;;30.90;25.56
6506;BME280;3286;49.858;8.768;2023-06-10T10:44:04;98928.19;;;30.75;25.83
6506;BME280;3286;49.858;8.768;2023-06-10T10:46:42;98914.63;;;32.04;24.57
6506;BME280;3286;49.858;8.768;2023-06-10T10:49:10;98916.03;;;31.11;24.88
6506;BME280;3286;49.858;8.768;2023-06-10T10:51:54;98901.88;;;32.13;24.28
6506;BME280;3286;49.858;8.768;2023-06-10T10:54:28;98908.34;;;32.03;24.31
6506;BME280;3286;49.858;8.768;2023-06-10T10:57:15;98907.72;;;31.21;25.63
6506;BME280;3286;49.858;8.768;2023-06-10T10:59:53;98902.59;;;32.19;25.48
6506;BME280;3286;49.858;8.768;2023-06-10T11:02:37;98905.75;;;31.79;25.34
6506;BME280;3286;49.858;8.768;2023-06-10T11:05:09;98909.34;;;31.22;24.98
6506;BME280;3286;49.858;8.768;2023-06-10T11:07:36;98902.38;;;31.68;24.35
6506;BME280;3286;49.858;8.768;2023-06-10T11:10:06;98902.31;;;31.16;24.18
6506;BME280;3286;49.858;8.768;2023-06-10T11:12:50;98892.19;;;31.55;24.59
6506;BME280;3286;49.858;8.768;2023-06-10T11:15:19;98903.72;;;30.45;25.95
6506;BME280;3286;49.858;8.768;2023-06-10T11:18:13;98891.53;;;31.96;24.22
6506;BME280;3286;49.858;8.768;2023-06-10T11:20:54;98898.75;;;31.15;24.10
6506;BME280;3286;49.858;8.768;2023-06-10T11:26:20;98895.56;;;32.32;24.35
6506;BME280;3286;49.858;8.768;2023-06-10T11:29:07;98900.00;;;30.85;25.87
6506;BME280;3286;49.858;8.768;2023-06-10T11:31:40;98888.06;;;30.56;25.29
6506;BME280;3286;49.858;8.768;2023-06-10T11:34:08;98895.84;;;30.44;25.80
6506;BME280;3286;49.858;8.768;2023-06-10T11:36:37;98881.53;;;31.20;25.18
6506;BME280;3286;49.858;8.768;2023-06-10T11:39:06;98901.50;;;30.47;25.15
6506;BME280;3286;49.858;8.768;2023-06-10T11:41:34;98881.72;;;31.62;23.82
6506;BME280;3286;49.858;8.768;2023-06-10T11:44:03;98880.66;;;31.58;24.20
6506;BME280;3286;49.858;8.768;2023-06-10T11:46:30;98885.19;;;31.10;23.85
6506;BME280;3286;49.858;8.768;2023-06-10T11:48:58;98885.97;;;32.01;23.98
6506;BME280;3286;49.858;8.768;2023-06-10T11:51:28;98876.63;;;31.55;23.16
6506;BME280;3286;49.858;8.768;2023-06-10T11:53:55;98882.25;;;31.06;23.00
6506;BME280;3286;49.858;8.768;2023-06-10T11:56:23;98880.00;;;31.99;23.51
6506;BME280;3286;49.858;8.768;2023-06-10T11:58:54;98887.16;;;32.42;24.14
6506;BME280;3286;49.858;8.768;2023-06-10T12:01:23;98882.72;;;31.99;23.23
6506;BME280;3286;49.858;8.768;2023-06-10T12:03:57;98890.06;;;31.13;24.16
6506;BME280;3286;49.858;8.768;2023-06-10T12:06:24;98880.16;;;31.17;24.27
6506;BME280;3286;49.858;8.768;2023-06-10T12:08:53;98874.78;;;32.31;23.57
6506;BME280;3286;49.858;8.768;2023-06-10T12:11:21;98871.00;;;31.65;23.50
6506;BME280;3286;49.858;8.768;2023-06-10T12:13:49;98872.97;;;31.46;23.81
6506;BME280;3286;49.858;8.768;2023-06-10T12:16:17;98869.38;;;31.64;23.65
6506;BME280;3286;49.858;8.768;2023-06-10T12:18:46;98868.47;;;31.88;24.08
6506;BME280;3286;49.858;8.768;2023-06-10T12:21:18;98863.94;;;33.18;22.52
6506;BME280;3286;49.858;8.768;2023-06-10T12:24:04;98859.06;;;32.92;22.60
6506;BME280;3286;49.858;8.768;2023-06-10T12:26:39;98859.31;;;32.40;22.86
6506;BME280;3286;49.858;8.768;2023-06-10T12:29:17;98859.19;;;31.70;24.09
6506;BME280;3286;49.858;8.768;2023-06-10T12:31:54;98866.28;;;32.46;23.82
6506;BME280;3286;49.858;8.768;2023-06-10T12:34:28;98863.25;;;32.48;22.93
6506;BME280;3286;49.858;8.768;2023-06-10T12:36:55;98856.59;;;32.40;23.82
6506;BME280;3286;49.858;8.768;2023-06-10T12:39:23;98859.00;;;32.56;22.96
6506;BME280;3286;49.858;8.768;2023-06-10T12:41:51;98853.06;;;33.27;22.12
6506;BME280;3286;49.858;8.768;2023-06-10T12:44:18;98860.91;;;33.43;22.54
6506;BME280;3286;49.858;8.768;2023-06-10T12:46:44;98864.88;;;31.55;23.60
6506;BME280;3286;49.858;8.768;2023-06-10T12:49:19;98861.53;;;32.66;23.33
6506;BME280;3286;49.858;8.768;2023-06-10T12:51:47;98853.63;;;32.50;24.10
6506;BME280;3286;49.858;8.768;2023-06-10T12:54:14;98853.13;;;33.36;22.67
6506;BME280;3286;49.858;8.768;2023-06-10T12:56:42;98847.47;;;33.09;21.70
6506;BME280;3286;49.858;8.768;2023-06-10T12:59:08;98848.91;;;33.30;22.22
6506;BME280;3286;49.858;8.768;2023-06-10T13:01:37;98850.75;;;32.98;22.10
6506;BME280;3286;49.858;8.768;2023-06-10T13:04:04;98847.25;;;32.69;23.03
6506;BME280;3286;49.858;8.768;2023-06-10T13:06:31;98848.22;;;31.23;24.87
6506;BME280;3286;49.858;8.768;2023-06-10T13:09:02;98843.03;;;32.35;23.96
6506;BME280;3286;49.858;8.768;2023-06-10T13:11:29;98839.44;;;32.20;21.78
6506;BME280;3286;49.858;8.768;2023-06-10T13:13:57;98828.31;;;33.32;21.61
6506;BME280;3286;49.858;8.768;2023-06-10T13:16:23;98841.56;;;33.39;22.31
6506;BME280;3286;49.858;8.768;2023-06-10T13:18:52;98838.69;;;32.99;22.49
6506;BME280;3286;49.858;8.768;2023-06-10T13:21:20;98830.88;;;32.78;23.55
6506;BME280;3286;49.858;8.768;2023-06-10T13:23:46;98831.88;;;34.19;20.92
6506;BME280;3286;49.858;8.768;2023-06-10T13:26:14;98832.66;;;32.60;22.94
6506;BME280;3286;49.858;8.768;2023-06-10T13:28:41;98827.00;;;33.52;22.74
6506;BME280;3286;49.858;8.768;2023-06-10T13:31:10;98821.94;;;32.35;23.59